This is the latest recevied weather packets stored in our database for station/object K7SPS-10. If no packets are shown the sender has not sent any weather packets the latest 1 day(s).
| Time | Temp. | Humidity | Pressure | Rain* | Wind** | Luminosity | Snow |
|---|---|---|---|---|---|---|---|
| 1778090792 | 19.44° C | 33% | 1020.4 hPa | 0 mm | - | 746 W/m² | - |
| 1778089276 | 18.89° C | 33% | 1020.4 hPa | 0 mm | - | 705 W/m² | - |
| 1778088974 | 18.89° C | 35% | 1020.2 hPa | 0 mm | - | 691 W/m² | - |
| 1778088368 | 18.33° C | 35% | 1020.2 hPa | 0 mm | - | 673 W/m² | - |
| 1778087459 | 18.33° C | 32% | 1020.6 hPa | 0 mm | - | 642 W/m² | - |
| 1778087156 | 18.33° C | 33% | 1020.4 hPa | 0 mm | - | 633 W/m² | - |
| 1778086552 | 17.78° C | 33% | 1020.2 hPa | 0 mm | - | 607 W/m² | - |
| 1778085945 | 17.22° C | 33% | 1020.4 hPa | 0 mm | - | 583 W/m² | - |
| 1778085642 | 17.22° C | 32% | 1020.4 hPa | 0 mm | - | 570 W/m² | - |
| 1778085034 | 17.22° C | 32% | 1020.6 hPa | 0 mm | - | 548 W/m² | - |
| 1778083217 | 16.11° C | 33% | 1020.5 hPa | 0 mm | - | 468 W/m² | - |
| 1778081806 | 16.11° C | 36% | 1020.1 hPa | 0 mm | - | 395 W/m² | - |
| 1778081200 | 15° C | 37% | 1020.4 hPa | 0 mm | - | 266 W/m² | - |
| 1778080898 | 15° C | 36% | 1020.5 hPa | 0 mm | - | 270 W/m² | - |
| 1778077568 | 13.33° C | 40% | 1019.8 hPa | 0 mm | - | 179 W/m² | - |
| 1778077266 | 13.33° C | 40% | 1019.7 hPa | 0 mm | - | 84 W/m² | - |
| 1778073630 | 11.67° C | 43% | 1019.4 hPa | 0 mm | - | 44 W/m² | - |
| 1778073327 | 11.67° C | 43% | 1019.2 hPa | 0 mm | - | 38 W/m² | - |
| 1778072418 | 11.11° C | 44% | 1019.1 hPa | 0 mm | - | 21 W/m² | - |
| 1778072116 | 11.11° C | 44% | 1019.2 hPa | 0 mm | - | 16 W/m² | - |
| 1778071511 | 11.11° C | 44% | 1018.7 hPa | 0 mm | - | 9 W/m² | - |
| 1778071209 | 11.11° C | 45% | 1018.6 hPa | 0 mm | - | 6 W/m² | - |
| 1778070301 | 11.11° C | 45% | 1018.4 hPa | 0 mm | - | 1 W/m² | - |
| 1778069090 | 11.11° C | 46% | 1018.3 hPa | 0 mm | - | 0 W/m² | - |
| 1778068787 | 11.11° C | 46% | 1018.2 hPa | 0 mm | - | 0 W/m² | - |
* Rain latest hour (hover to see other rain measurements)
** Current wind speed in m/s (hover to see current wind gust speed)